KROW/ROW METAR and TAF weather

Enter ICAO airport designator
Station Type Date Time Source
KROW METAR 2020/09/23 18:51 UTC NOAA

KROW 231851Z 12007KT 080V160 10SM CLR 31/06 A3004 RMK AO2 SLP111 T03060061


Station Type Date Time Source
KROW Decoded METAR 2020/09/23 18:51 UTC NOAA

ROSWELL INDUSTRIAL AIR CENTR, NM, United States (KROW) 33-18N 104-32W 1112M
Sep 23, 2020 - 02:51 PM EDT / 2020.09.23 1851 UTC
Wind: from the ESE (120 degrees) at 8 MPH (7 KT) (direction variable):0
Visibility: 10 mile(s):0
Sky conditions: clear
Temperature: 87.1 F (30.6 C)
Dew Point: 43.0 F (6.1 C)
Relative Humidity: 21%
Pressure (altimeter): 30.04 in. Hg (1017 hPa)
ob: KROW 231851Z 12007KT 080V160 10SM CLR 31/06 A3004 RMK AO2 SLP111 T03060061
cycle: 19

Station Type Date Time Source
KROW TAF 2020/09/23 18:30 UTC NOAA

TAF KROW 231727Z 2318/2418 07006KT P6SM SKC
FM232200 03009KT P6SM BKN120
FM240200 01006KT P6SM SCT120
FM241700 11006KT P6SM SKC

Example: see airport list